Aviation Digital Data Service (ADDS)

Output produced by METARs form (1201 UTC 22 December 2014)
found at http://aviationweather.gov/adds/metars/
 
KGON 221124Z 2212/2312 02008KT P6SM SCT015 OVC045 
     FM221500 05007KT P6SM SCT015 OVC040 
     FM230200 06008KT 6SM -RA BR BKN020 OVC035 
     FM230700 07008KT 5SM -RA BR BKN007 OVC015